Time;durP1;ratioP1;P1;durP2;ratioP2;P2;SDS_P1;SDS_P2;PMS_P1;PMS_P2;Temp;Humidity;BMP_temperature;BMP_pressure;BME280_temperature;BME280_humidity;BME280_pressure;Samples;Min_cycle;Max_cycle;Signal;HPM_P1;HPM_P2
2023/01/23 00:01:49;;;;;;;31.38;28.08;;;1.30;99.90;;;;;;5005900;28;20038;-77
2023/01/23 00:04:14;;;;;;;49.25;44.00;;;1.40;99.90;;;;;;5005921;28;20046;-76
2023/01/23 00:06:41;;;;;;;29.60;24.63;;;1.40;99.90;;;;;;5005947;28;20042;-76
2023/01/23 00:09:08;;;;;;;33.95;29.25;;;1.40;99.90;;;;;;5004633;28;20037;-76
2023/01/23 00:11:34;;;;;;;36.20;29.70;;;1.40;99.90;;;;;;5005974;28;20027;-76
2023/01/23 00:14:02;;;;;;;31.02;27.92;;;1.40;99.90;;;;;;5005739;28;20086;-76
2023/01/23 00:16:30;;;;;;;30.20;26.83;;;1.40;99.90;;;;;;5006102;28;20026;-76
2023/01/23 00:18:56;;;;;;;33.22;29.00;;;1.40;99.90;;;;;;5009524;28;20117;-76
2023/01/23 00:21:24;;;;;;;33.83;28.02;;;1.40;99.90;;;;;;5009382;28;20050;-77
2023/01/23 00:23:52;;;;;;;27.48;24.48;;;1.40;99.90;;;;;;5008420;28;20042;-76
2023/01/23 00:26:21;;;;;;;31.60;24.88;;;1.40;99.90;;;;;;5008073;28;20102;-76
2023/01/23 00:28:48;;;;;;;27.20;24.33;;;1.50;99.90;;;;;;5009252;28;20030;-76
2023/01/23 00:31:18;;;;;;;31.23;23.45;;;1.40;99.90;;;;;;5007755;28;20030;-76
2023/01/23 00:33:44;;;;;;;29.58;25.13;;;1.50;99.90;;;;;;5008035;28;20033;-76
2023/01/23 00:36:11;;;;;;;33.15;27.65;;;1.40;99.90;;;;;;5008960;28;20022;-76
2023/01/23 00:38:37;;;;;;;29.13;25.10;;;1.40;99.90;;;;;;5007952;28;20054;-76
2023/01/23 00:41:03;;;;;;;30.70;24.95;;;1.40;99.90;;;;;;5007751;28;20052;-76
2023/01/23 00:43:31;;;;;;;27.73;24.80;;;1.40;99.90;;;;;;5007857;28;20026;-76
2023/01/23 00:45:58;;;;;;;38.55;24.75;;;1.40;99.90;;;;;;5007720;28;20038;-76
2023/01/23 00:48:24;;;;;;;28.88;25.25;;;1.40;99.90;;;;;;5008823;28;20035;-76
2023/01/23 00:50:51;;;;;;;28.73;25.55;;;1.40;99.90;;;;;;4991260;28;20026;-75
2023/01/23 00:53:17;;;;;;;29.48;23.92;;;1.40;99.90;;;;;;5009026;28;20424;-76
2023/01/23 00:55:44;;;;;;;31.55;26.27;;;1.40;99.90;;;;;;5008979;28;20114;-76
2023/01/23 00:58:10;;;;;;;27.85;21.90;;;1.40;99.90;;;;;;4975125;28;20026;-76
2023/01/23 01:00:37;;;;;;;32.42;22.40;;;1.50;99.90;;;;;;5007529;28;20452;-76
2023/01/23 01:03:04;;;;;;;27.67;24.45;;;1.40;99.90;;;;;;5008641;28;20042;-76
2023/01/23 01:05:30;;;;;;;26.52;22.02;;;1.50;99.90;;;;;;5007421;28;20030;-76
2023/01/23 01:07:55;;;;;;;29.35;26.35;;;1.50;99.90;;;;;;5007376;28;20081;-76
2023/01/23 01:10:21;;;;;;;38.22;26.80;;;1.40;99.90;;;;;;4990997;28;20046;-76
2023/01/23 01:12:48;;;;;;;28.83;25.63;;;1.50;99.90;;;;;;5007362;28;20029;-76
2023/01/23 01:15:14;;;;;;;26.90;21.65;;;1.50;99.90;;;;;;5007031;28;20065;-76
2023/01/23 01:17:40;;;;;;;28.98;25.73;;;1.50;99.90;;;;;;4987853;28;20030;-76
2023/01/23 01:20:07;;;;;;;32.97;24.00;;;1.50;99.90;;;;;;5018723;28;20405;-76
2023/01/23 01:22:33;;;;;;;26.30;21.60;;;1.50;99.90;;;;;;4991033;28;20069;-76
2023/01/23 01:24:58;;;;;;;30.25;24.63;;;1.50;99.90;;;;;;4990793;28;20105;-76
2023/01/23 01:27:26;;;;;;;28.88;23.50;;;1.50;99.90;;;;;;5006295;28;20031;-76
2023/01/23 01:29:52;;;;;;;24.35;22.02;;;1.50;99.90;;;;;;5007087;28;20085;-76
2023/01/23 01:32:18;;;;;;;24.17;21.45;;;1.50;99.90;;;;;;5007888;28;20034;-76
2023/01/23 01:34:47;;;;;;;28.30;24.75;;;1.60;99.90;;;;;;5006882;28;20030;-76
2023/01/23 01:37:14;;;;;;;33.78;28.60;;;1.50;99.90;;;;;;5007160;28;20038;-76
2023/01/23 01:39:40;;;;;;;28.52;25.63;;;1.50;99.90;;;;;;5007814;28;20414;-76
2023/01/23 01:42:06;;;;;;;29.65;25.15;;;1.50;99.90;;;;;;5007974;28;20061;-76
2023/01/23 01:45:28;;;;;;;27.15;22.85;;;1.50;99.90;;;;;;5006913;28;20034;-76
2023/01/23 01:47:53;;;;;;;30.60;24.15;;;1.50;99.90;;;;;;4995650;28;20121;-76
2023/01/23 01:50:19;;;;;;;28.63;24.45;;;1.60;99.90;;;;;;4971086;28;20051;-76
2023/01/23 01:52:45;;;;;;;25.92;23.63;;;1.60;99.90;;;;;;4988412;28;20482;-76
2023/01/23 01:55:11;;;;;;;35.60;24.17;;;1.60;99.90;;;;;;4987032;28;20038;-76
2023/01/23 01:57:42;;;;;;;25.83;22.92;;;1.50;99.90;;;;;;5004853;28;20033;-75
2023/01/23 02:00:16;;;;;;;26.83;23.85;;;1.50;99.90;;;;;;5007782;28;20105;-76
2023/01/23 02:02:52;;;;;;;25.55;22.63;;;1.50;99.90;;;;;;5006201;28;20053;-76
2023/01/23 02:05:29;;;;;;;30.92;25.02;;;1.60;99.90;;;;;;5007637;28;20034;-76
2023/01/23 02:08:03;;;;;;;29.45;26.02;;;1.60;99.90;;;;;;5006056;28;20034;-76
2023/01/23 02:10:31;;;;;;;28.75;25.67;;;1.60;99.90;;;;;;5006347;28;20040;-76
2023/01/23 02:13:22;;;;;;;34.60;25.75;;;1.50;99.90;;;;;;4990166;28;20018;-76
2023/01/23 02:15:51;;;;;;;30.02;25.67;;;1.50;99.90;;;;;;5006108;28;20053;-76
2023/01/23 02:18:17;;;;;;;39.83;26.50;;;1.60;99.90;;;;;;4989707;28;20120;-75
2023/01/23 02:20:43;;;;;;;28.55;24.90;;;1.50;99.90;;;;;;5005971;28;20042;-76
2023/01/23 02:23:41;;;;;;;37.05;29.33;;;1.50;99.90;;;;;;5006053;28;20097;-76
2023/01/23 02:26:15;;;;;;;38.03;31.65;;;1.60;99.90;;;;;;5006049;28;20098;-76
2023/01/23 02:28:46;;;;;;;35.28;29.80;;;1.50;99.90;;;;;;5005886;28;20038;-76
2023/01/23 02:31:17;;;;;;;33.95;27.42;;;1.50;99.90;;;;;;5005930;28;20029;-76
2023/01/23 02:33:52;;;;;;;26.98;24.10;;;1.50;99.90;;;;;;5005659;28;20393;-76
2023/01/23 02:36:24;;;;;;;33.65;27.63;;;1.50;99.90;;;;;;5005757;28;20180;-75
2023/01/23 02:38:56;;;;;;;30.55;27.25;;;1.50;99.90;;;;;;5005163;28;20138;-76
2023/01/23 02:41:28;;;;;;;40.95;29.55;;;1.50;99.90;;;;;;5005544;28;20040;-76
2023/01/23 02:43:57;;;;;;;38.05;31.77;;;1.50;99.90;;;;;;5005183;28;20060;-76
2023/01/23 02:46:24;;;;;;;31.70;27.98;;;1.50;99.90;;;;;;5005481;28;20022;-76
2023/01/23 02:48:50;;;;;;;35.05;27.70;;;1.60;99.90;;;;;;5005707;28;20054;-76
2023/01/23 02:51:17;;;;;;;30.45;26.00;;;1.50;99.90;;;;;;5006739;28;20040;-76
2023/01/23 02:53:44;;;;;;;30.08;26.40;;;1.50;99.90;;;;;;5005133;28;20015;-76
2023/01/23 02:56:10;;;;;;;29.65;24.35;;;1.50;99.90;;;;;;5005410;28;20089;-76
2023/01/23 03:01:21;;;;;;;40.15;27.90;;;1.60;99.90;;;;;;5006688;28;20031;-76
2023/01/23 03:03:50;;;;;;;31.83;24.10;;;1.60;99.90;;;;;;5005187;28;20086;-76
2023/01/23 03:06:16;;;;;;;35.53;26.08;;;1.60;99.90;;;;;;5005311;28;20061;-75
2023/01/23 03:08:46;;;;;;;37.10;27.73;;;1.60;99.90;;;;;;5005056;28;20048;-76
2023/01/23 03:11:13;;;;;;;38.70;27.10;;;1.60;99.90;;;;;;5005306;28;20061;-76
2023/01/23 03:13:39;;;;;;;36.20;28.48;;;1.60;99.90;;;;;;4985471;28;20027;-76
2023/01/23 03:16:06;;;;;;;28.42;24.05;;;1.60;99.90;;;;;;4985741;28;20098;-76
2023/01/23 03:18:32;;;;;;;36.35;26.20;;;1.60;99.90;;;;;;4985482;28;20866;-76
2023/01/23 03:21:06;;;;;;;35.83;27.20;;;1.60;99.90;;;;;;4969464;28;20018;-76
2023/01/23 03:23:31;;;;;;;37.30;28.23;;;1.60;99.90;;;;;;4985597;28;20031;-76
2023/01/23 03:25:57;;;;;;;27.63;24.27;;;1.60;99.90;;;;;;4985581;28;20042;-76
2023/01/23 03:31:14;;;;;;;33.45;25.98;;;1.60;99.90;;;;;;5004698;28;20030;-76
2023/01/23 03:33:42;;;;;;;30.42;23.10;;;1.60;99.90;;;;;;5005004;28;20026;-76
2023/01/23 03:36:10;;;;;;;28.67;25.48;;;1.80;99.90;;;;;;5004807;28;20197;-76
2023/01/23 03:38:36;;;;;;;29.15;25.60;;;1.70;99.90;;;;;;5004805;28;20050;-76
2023/01/23 03:43:50;;;;;;;41.83;27.15;;;1.60;99.90;;;;;;4991173;28;20066;-76
2023/01/23 03:46:16;;;;;;;29.95;22.33;;;1.60;99.90;;;;;;5004722;28;20034;-76
2023/01/23 03:48:41;;;;;;;36.50;24.52;;;1.60;99.90;;;;;;5004867;28;20057;-76
2023/01/23 03:51:07;;;;;;;30.13;23.85;;;1.60;99.90;;;;;;5007616;28;20035;-76
2023/01/23 03:53:33;;;;;;;34.17;27.58;;;1.60;99.90;;;;;;4976467;28;20026;-76
2023/01/23 03:56:00;;;;;;;33.25;26.10;;;1.60;99.90;;;;;;5008675;28;20414;-76
2023/01/23 03:58:26;;;;;;;37.08;24.17;;;1.60;99.90;;;;;;5008442;28;20106;-76
2023/01/23 04:00:53;;;;;;;42.13;25.50;;;1.60;99.90;;;;;;5008649;28;20115;-76
2023/01/23 04:03:19;;;;;;;38.88;27.25;;;1.60;99.90;;;;;;5008273;28;20030;-76
2023/01/23 04:05:45;;;;;;;30.08;26.40;;;1.60;99.90;;;;;;5008778;28;20034;-76
2023/01/23 04:08:12;;;;;;;33.83;27.48;;;1.60;99.90;;;;;;4992414;28;20034;-76
2023/01/23 04:10:38;;;;;;;31.00;27.17;;;1.60;99.90;;;;;;5008422;28;20094;-76
2023/01/23 04:13:10;;;;;;;31.30;24.30;;;1.60;99.90;;;;;;4993039;28;20033;-76
2023/01/23 04:15:37;;;;;;;29.40;24.85;;;1.60;99.90;;;;;;4991998;28;20046;-76
2023/01/23 04:18:05;;;;;;;45.28;26.40;;;1.60;99.90;;;;;;4992253;28;20062;-76
2023/01/23 04:20:31;;;;;;;33.15;25.23;;;1.60;99.90;;;;;;4976191;28;20034;-76
2023/01/23 04:22:58;;;;;;;37.13;26.48;;;1.60;99.90;;;;;;5008399;28;20113;-76
2023/01/23 04:25:25;;;;;;;31.08;23.85;;;1.60;99.90;;;;;;4992075;28;20037;-76
2023/01/23 04:27:51;;;;;;;31.58;25.80;;;1.70;99.90;;;;;;5009001;28;20030;-76
2023/01/23 04:30:17;;;;;;;40.38;26.85;;;1.60;99.90;;;;;;4991744;28;20065;-76
2023/01/23 04:32:43;;;;;;;32.47;25.10;;;1.60;99.90;;;;;;4991827;28;20019;-77
2023/01/23 04:35:09;;;;;;;26.08;23.30;;;1.60;99.90;;;;;;5008123;28;20034;-76
2023/01/23 04:37:37;;;;;;;24.50;21.90;;;1.60;99.90;;;;;;5008081;28;20097;-76
2023/01/23 04:40:03;;;;;;;30.42;23.67;;;1.60;99.90;;;;;;5008921;28;20050;-76
2023/01/23 04:42:38;;;;;;;38.50;27.05;;;1.60;99.90;;;;;;5004607;28;20034;-76
2023/01/23 04:45:10;;;;;;;28.83;23.08;;;1.70;99.90;;;;;;4988523;28;20045;-76
2023/01/23 04:48:06;;;;;;;25.45;22.33;;;1.60;99.90;;;;;;4988357;28;20035;-76
2023/01/23 04:50:34;;;;;;;28.50;24.40;;;1.60;99.90;;;;;;4988334;28;20035;-76
2023/01/23 04:53:00;;;;;;;30.98;24.80;;;1.60;99.90;;;;;;4988172;28;20034;-76
2023/01/23 04:55:27;;;;;;;36.08;23.38;;;1.50;99.90;;;;;;4989777;28;20497;-76
2023/01/23 04:57:54;;;;;;;27.75;24.80;;;1.60;99.90;;;;;;5007648;28;20030;-76
2023/01/23 05:00:27;;;;;;;28.13;24.38;;;1.60;99.90;;;;;;5007728;28;20409;-76
2023/01/23 05:02:54;;;;;;;21.17;19.05;;;1.60;99.90;;;;;;5007893;28;20053;-75
2023/01/23 05:05:20;;;;;;;34.50;25.30;;;1.70;99.90;;;;;;5007480;28;20034;-77
2023/01/23 05:07:50;;;;;;;25.48;21.48;;;1.70;99.90;;;;;;5007348;28;20189;-76
2023/01/23 05:10:16;;;;;;;31.67;24.05;;;1.70;99.90;;;;;;5007178;28;20034;-77
2023/01/23 05:12:43;;;;;;;32.28;23.23;;;1.70;99.90;;;;;;5007563;28;20110;-76
2023/01/23 05:15:09;;;;;;;28.67;22.95;;;1.70;99.90;;;;;;5007290;28;20035;-76
2023/01/23 05:17:38;;;;;;;31.83;24.10;;;1.60;99.90;;;;;;5007229;28;20034;-76
2023/01/23 05:20:04;;;;;;;31.42;24.52;;;1.60;99.90;;;;;;5008650;28;20756;-76
2023/01/23 05:22:31;;;;;;;30.40;23.63;;;1.60;99.90;;;;;;5007020;28;20038;-76
2023/01/23 05:24:58;;;;;;;26.25;23.60;;;1.70;99.90;;;;;;5006752;28;20027;-76
2023/01/23 05:27:26;;;;;;;27.85;23.10;;;1.60;99.90;;;;;;5007017;28;20086;-76
2023/01/23 05:29:53;;;;;;;31.52;23.15;;;1.60;99.90;;;;;;5007133;28;20125;-76
2023/01/23 05:32:23;;;;;;;28.52;25.40;;;1.60;99.90;;;;;;5007243;28;20405;-76
2023/01/23 05:34:56;;;;;;;27.45;24.63;;;1.60;99.90;;;;;;4991687;28;20053;-76
2023/01/23 05:37:25;;;;;;;31.83;24.73;;;1.60;99.90;;;;;;4991304;28;20118;-76
2023/01/23 05:39:54;;;;;;;34.60;24.63;;;1.60;99.90;;;;;;4990615;28;20057;-76
2023/01/23 05:42:20;;;;;;;25.75;23.10;;;1.60;99.90;;;;;;5018521;28;20045;-76
2023/01/23 05:44:56;;;;;;;28.05;24.92;;;1.60;99.90;;;;;;5003304;28;20133;-77
2023/01/23 05:47:28;;;;;;;35.08;28.00;;;1.60;99.90;;;;;;5005936;28;20089;-77
2023/01/23 05:49:55;;;;;;;33.13;23.58;;;1.60;99.90;;;;;;5006203;28;20018;-77
2023/01/23 05:52:24;;;;;;;29.05;23.30;;;1.60;99.90;;;;;;5005590;28;20049;-77
2023/01/23 05:54:50;;;;;;;29.70;26.15;;;1.70;99.90;;;;;;5002397;28;20034;-76
2023/01/23 05:57:17;;;;;;;31.70;23.83;;;1.70;99.90;;;;;;5001572;28;20062;-77
2023/01/23 06:00:03;;;;;;;26.58;23.75;;;1.70;99.90;;;;;;4998138;28;20041;-78
2023/01/23 06:02:40;;;;;;;31.48;27.90;;;1.60;99.90;;;;;;4975715;28;20046;-77
2023/01/23 06:05:22;;;;;;;38.22;25.92;;;1.70;99.90;;;;;;5000130;28;20068;-77
2023/01/23 06:08:06;;;;;;;31.35;26.75;;;1.60;99.90;;;;;;5006008;28;20038;-77
2023/01/23 06:10:35;;;;;;;35.53;29.05;;;1.70;99.90;;;;;;5005911;28;20117;-77
2023/01/23 06:13:01;;;;;;;29.00;23.70;;;1.70;99.90;;;;;;5003742;28;20031;-77
2023/01/23 06:15:28;;;;;;;29.88;25.73;;;1.70;99.90;;;;;;4983972;28;20070;-77
2023/01/23 06:17:55;;;;;;;38.42;28.92;;;1.70;99.90;;;;;;4996831;28;20035;-77
2023/01/23 06:20:23;;;;;;;34.67;26.83;;;1.70;99.90;;;;;;4994055;28;20026;-78
2023/01/23 06:22:49;;;;;;;31.92;27.35;;;1.70;99.90;;;;;;4971384;28;20030;-77
2023/01/23 06:25:16;;;;;;;26.92;22.85;;;1.70;99.90;;;;;;4984126;28;20045;-77
2023/01/23 06:27:42;;;;;;;30.13;26.45;;;1.70;99.90;;;;;;4989321;28;20034;-77
2023/01/23 06:30:09;;;;;;;39.15;26.45;;;1.70;99.90;;;;;;4988602;28;20041;-77
2023/01/23 06:32:44;;;;;;;35.78;26.95;;;1.70;99.90;;;;;;5000225;28;20027;-77
2023/01/23 06:35:11;;;;;;;28.33;24.77;;;1.70;99.90;;;;;;4997509;28;20030;-77
2023/01/23 06:37:40;;;;;;;31.98;26.33;;;1.70;99.90;;;;;;5003551;28;20158;-77
2023/01/23 06:40:12;;;;;;;28.55;24.95;;;1.70;99.90;;;;;;5005012;28;20047;-77
2023/01/23 06:42:40;;;;;;;32.67;25.75;;;1.60;99.90;;;;;;4991257;28;20065;-77
2023/01/23 06:45:08;;;;;;;30.48;25.88;;;1.60;99.90;;;;;;5006869;28;20125;-77
2023/01/23 06:47:35;;;;;;;28.80;25.80;;;1.60;99.90;;;;;;5005055;28;20058;-77
2023/01/23 06:50:01;;;;;;;30.98;25.48;;;1.60;99.90;;;;;;5005217;28;20022;-77
2023/01/23 06:52:30;;;;;;;32.17;26.25;;;1.60;99.90;;;;;;5005311;28;20028;-77
2023/01/23 06:54:56;;;;;;;31.35;23.95;;;1.60;99.90;;;;;;5021266;28;20023;-76
2023/01/23 06:57:22;;;;;;;33.08;25.05;;;1.70;99.90;;;;;;5004937;28;20045;-77
2023/01/23 06:59:49;;;;;;;28.25;25.00;;;1.80;99.90;;;;;;5004982;28;20033;-77
2023/01/23 07:02:17;;;;;;;22.98;19.98;;;1.70;99.90;;;;;;5004530;28;20485;-77
2023/01/23 07:04:48;;;;;;;27.92;23.38;;;1.70;99.90;;;;;;4989588;28;20042;-77
2023/01/23 07:07:14;;;;;;;26.73;23.60;;;1.70;99.90;;;;;;5005018;28;20031;-77
2023/01/23 07:09:41;;;;;;;27.05;21.58;;;1.80;99.90;;;;;;5004820;28;20026;-77
2023/01/23 07:12:17;;;;;;;27.38;22.67;;;1.80;99.90;;;;;;4989993;28;20014;-78
2023/01/23 07:14:43;;;;;;;30.70;23.83;;;1.80;99.90;;;;;;5004786;28;20036;-78
2023/01/23 07:17:11;;;;;;;27.30;21.95;;;1.80;99.90;;;;;;5005152;28;20034;-77
2023/01/23 07:19:37;;;;;;;35.45;26.63;;;1.80;99.90;;;;;;5004799;28;20041;-78
2023/01/23 07:22:06;;;;;;;28.65;25.67;;;1.80;99.90;;;;;;5004812;28;20117;-78
2023/01/23 07:24:32;;;;;;;28.02;22.92;;;1.80;99.90;;;;;;5005321;28;20029;-78
2023/01/23 07:26:58;;;;;;;26.80;23.67;;;1.70;99.90;;;;;;4987777;28;20046;-77
2023/01/23 07:29:24;;;;;;;33.33;24.88;;;1.70;99.90;;;;;;4988256;28;20035;-78
2023/01/23 07:31:50;;;;;;;32.70;25.52;;;1.70;99.90;;;;;;5004459;28;20027;-77
2023/01/23 07:34:16;;;;;;;29.38;26.15;;;1.70;99.90;;;;;;4995142;28;20023;-77
2023/01/23 07:36:42;;;;;;;26.13;22.60;;;1.80;99.90;;;;;;4998637;28;20066;-77
2023/01/23 07:39:08;;;;;;;37.95;28.63;;;1.80;99.90;;;;;;5005725;28;20046;-77
2023/01/23 07:41:34;;;;;;;31.70;27.63;;;1.80;99.90;;;;;;5005943;28;20018;-77
2023/01/23 07:44:02;;;;;;;32.00;26.40;;;1.80;99.90;;;;;;4988588;28;20034;-76
2023/01/23 07:46:29;;;;;;;36.60;27.55;;;1.80;99.90;;;;;;5006083;28;20026;-77
2023/01/23 07:48:55;;;;;;;36.47;27.63;;;1.80;99.90;;;;;;5005600;28;20041;-77
2023/01/23 07:51:21;;;;;;;40.28;27.98;;;1.80;99.90;;;;;;5006028;28;20026;-77
2023/01/23 07:53:46;;;;;;;38.60;27.33;;;1.80;99.90;;;;;;5004851;28;20044;-76
2023/01/23 07:56:12;;;;;;;26.98;24.25;;;1.90;99.90;;;;;;5006047;28;20058;-76
2023/01/23 07:58:38;;;;;;;31.42;27.73;;;1.90;99.90;;;;;;5006120;28;20117;-76
2023/01/23 08:01:10;;;;;;;36.33;27.95;;;1.90;99.90;;;;;;5005315;28;20042;-76
2023/01/23 08:03:36;;;;;;;36.00;27.95;;;1.90;99.90;;;;;;5004641;28;20069;-76
2023/01/23 08:06:02;;;;;;;39.35;29.98;;;1.90;99.90;;;;;;5005990;28;20036;-76
2023/01/23 08:08:29;;;;;;;29.48;26.30;;;2.00;99.90;;;;;;5006041;28;20034;-76
2023/01/23 08:10:55;;;;;;;34.40;24.08;;;2.00;99.90;;;;;;5006127;28;20493;-76
2023/01/23 08:13:21;;;;;;;39.60;27.42;;;2.00;99.90;;;;;;5004902;28;20054;-76
2023/01/23 08:15:46;;;;;;;37.90;27.58;;;2.00;99.90;;;;;;5005845;28;20038;-76
2023/01/23 08:18:12;;;;;;;32.05;25.70;;;2.10;99.90;;;;;;5005616;28;20030;-76
2023/01/23 08:20:38;;;;;;;33.30;26.45;;;2.10;99.90;;;;;;5004711;28;20436;-76
2023/01/23 08:23:04;;;;;;;35.40;26.70;;;2.10;99.90;;;;;;5005927;28;20034;-76
2023/01/23 08:25:30;;;;;;;24.83;22.23;;;2.10;99.90;;;;;;5005896;28;20068;-76
2023/01/23 08:27:56;;;;;;;36.13;29.10;;;2.10;99.90;;;;;;5004555;28;20068;-76
2023/01/23 08:30:22;;;;;;;41.75;28.52;;;2.10;99.90;;;;;;5004425;28;20031;-76
2023/01/23 08:32:48;;;;;;;35.28;30.10;;;2.10;99.90;;;;;;5004004;28;20100;-76
2023/01/23 08:35:13;;;;;;;37.08;27.13;;;2.20;99.90;;;;;;5005757;28;20054;-77
2023/01/23 08:37:41;;;;;;;31.48;28.33;;;2.10;99.90;;;;;;5006302;28;20489;-76
2023/01/23 08:40:07;;;;;;;34.22;26.65;;;2.20;99.90;;;;;;5008666;28;20101;-76
2023/01/23 08:42:33;;;;;;;38.42;30.20;;;2.20;99.90;;;;;;4990900;28;20038;-77
2023/01/23 08:44:59;;;;;;;32.35;26.05;;;2.30;99.90;;;;;;5009291;28;20054;-76
2023/01/23 08:47:25;;;;;;;32.92;24.70;;;2.30;99.90;;;;;;5008918;28;20045;-77
2023/01/23 08:49:50;;;;;;;28.65;25.73;;;2.40;99.90;;;;;;5009205;28;20030;-77
2023/01/23 08:52:16;;;;;;;34.88;24.50;;;2.40;99.90;;;;;;5000858;28;20050;-77
2023/01/23 08:54:42;;;;;;;29.38;25.48;;;2.40;99.90;;;;;;5007737;28;20086;-77
2023/01/23 08:57:08;;;;;;;28.17;24.50;;;2.40;99.90;;;;;;5007128;28;20061;-76
2023/01/23 08:59:34;;;;;;;28.58;24.92;;;2.60;99.90;;;;;;5008718;28;20042;-76
2023/01/23 09:01:59;;;;;;;30.13;24.27;;;2.50;99.90;;;;;;5007604;28;20045;-77
2023/01/23 09:04:25;;;;;;;27.20;24.30;;;2.60;99.90;;;;;;5007727;28;20045;-77
2023/01/23 09:06:51;;;;;;;28.52;23.52;;;2.60;99.90;;;;;;5007614;28;20260;-77
2023/01/23 09:09:17;;;;;;;36.40;24.02;;;2.60;99.90;;;;;;5007771;28;20083;-77
2023/01/23 09:11:45;;;;;;;28.60;25.48;;;2.60;99.90;;;;;;5007565;28;20037;-77
2023/01/23 09:14:11;;;;;;;23.83;21.38;;;2.60;99.90;;;;;;5008762;28;20113;-77
2023/01/23 09:16:38;;;;;;;23.15;20.58;;;2.60;99.90;;;;;;5008244;28;20437;-78
2023/01/23 09:19:03;;;;;;;26.35;21.27;;;2.60;99.90;;;;;;5008761;28;20398;-77
2023/01/23 09:21:29;;;;;;;27.77;24.65;;;2.70;99.90;;;;;;5008445;28;20105;-78
2023/01/23 09:23:55;;;;;;;24.40;21.88;;;2.70;99.90;;;;;;5008737;28;20034;-77
2023/01/23 09:26:21;;;;;;;35.25;23.85;;;2.80;99.90;;;;;;4991046;28;20041;-77
2023/01/23 09:28:47;;;;;;;23.98;21.52;;;2.80;99.90;;;;;;5007070;28;20038;-77
2023/01/23 09:31:13;;;;;;;28.75;24.60;;;2.80;99.90;;;;;;5008093;28;20106;-77
2023/01/23 09:33:40;;;;;;;26.52;22.70;;;2.80;99.90;;;;;;4990670;28;20022;-76
2023/01/23 09:36:07;;;;;;;24.60;20.90;;;2.80;99.90;;;;;;5008405;28;20023;-77
2023/01/23 09:38:33;;;;;;;26.50;21.95;;;2.90;99.90;;;;;;4990825;28;20050;-77
2023/01/23 09:41:05;;;;;;;26.05;21.70;;;2.90;99.90;;;;;;5006963;28;20275;-77
2023/01/23 09:43:31;;;;;;;26.20;23.38;;;3.00;99.90;;;;;;5008214;28;20031;-76
2023/01/23 09:46:00;;;;;;;30.02;26.10;;;3.00;99.90;;;;;;5008118;28;20030;-76
2023/01/23 09:48:47;;;;;;;29.40;25.60;;;3.10;99.90;;;;;;5008024;28;20073;-76
2023/01/23 09:51:38;;;;;;;28.45;24.20;;;3.20;99.90;;;;;;5007189;28;20031;-76
2023/01/23 09:54:19;;;;;;;22.52;20.08;;;3.20;99.90;;;;;;5008064;28;20046;-76
2023/01/23 09:56:46;;;;;;;;;;;3.20;99.90;;;;;;5008448;28;20032;-76
2023/01/23 09:59:30;;;;;;;25.00;22.42;;;3.20;99.90;;;;;;5006336;28;19912;-76
2023/01/23 10:01:56;;;;;;;24.70;20.58;;;3.10;99.90;;;;;;5007577;28;20038;-77
2023/01/23 10:04:22;;;;;;;26.45;23.95;;;3.10;99.90;;;;;;5005778;28;20026;-77
2023/01/23 10:07:22;;;;;;;20.55;17.48;;;3.10;99.90;;;;;;4989435;28;20037;-77
2023/01/23 10:09:57;;;;;;;25.45;19.10;;;3.20;99.90;;;;;;5006036;28;20086;-78
2023/01/23 10:12:31;;;;;;;22.90;20.63;;;3.30;99.90;;;;;;5008054;28;20030;-77
2023/01/23 10:15:09;;;;;;;24.17;21.65;;;3.30;99.90;;;;;;5006004;28;20030;-77
2023/01/23 10:17:55;;;;;;;22.77;20.23;;;3.30;99.90;;;;;;5007690;28;20056;-77
2023/01/23 10:20:50;;;;;;;23.27;20.23;;;3.20;99.90;;;;;;5007656;28;20044;-77
2023/01/23 10:23:21;;;;;;;24.13;20.85;;;3.20;99.90;;;;;;5007148;28;20037;-77
2023/01/23 10:25:48;;;;;;;24.90;21.13;;;3.30;99.90;;;;;;5007313;28;20097;-77
2023/01/23 10:28:38;;;;;;;31.95;21.83;;;3.30;99.90;;;;;;5007054;28;20070;-77
2023/01/23 10:31:14;;;;;;;18.73;12.88;;;3.40;99.90;;;;;;5007297;28;20034;-76
2023/01/23 10:34:09;;;;;;;22.27;19.20;;;3.40;99.90;;;;;;5007490;28;20026;-76
2023/01/23 10:36:44;;;;;;;21.42;19.23;;;3.40;99.90;;;;;;5008481;28;20557;-76
2023/01/23 10:39:24;;;;;;;26.63;19.60;;;3.40;99.90;;;;;;5006895;28;20058;-76
2023/01/23 10:41:50;;;;;;;24.13;21.58;;;3.60;99.90;;;;;;5006188;28;20038;-76
2023/01/23 10:44:18;;;;;;;30.48;21.60;;;3.60;99.90;;;;;;5005773;28;20034;-77
2023/01/23 10:46:51;;;;;;;29.75;24.58;;;3.70;99.90;;;;;;5006990;28;20042;-77
2023/01/23 10:49:36;;;;;;;28.42;25.10;;;3.80;99.90;;;;;;5006892;28;20060;-77
2023/01/23 10:52:03;;;;;;;37.88;30.15;;;3.80;99.90;;;;;;5006987;28;20042;-77
2023/01/23 10:54:29;;;;;;;44.88;32.40;;;3.80;99.90;;;;;;5006793;28;20034;-77
2023/01/23 10:57:19;;;;;;;59.95;42.58;;;3.90;99.90;;;;;;5005700;28;20531;-77
2023/01/23 11:00:00;;;;;;;34.75;26.55;;;4.00;99.90;;;;;;5006776;28;20109;-77
2023/01/23 11:02:33;;;;;;;44.20;32.78;;;4.00;99.90;;;;;;5006547;28;20031;-77
2023/01/23 11:05:00;;;;;;;22.90;20.55;;;3.90;99.90;;;;;;5005472;28;20042;-77
2023/01/23 11:07:31;;;;;;;24.17;19.42;;;4.00;99.90;;;;;;5000512;28;20049;-76
2023/01/23 11:09:59;;;;;;;21.98;19.33;;;4.00;99.90;;;;;;5000770;28;20033;-76
2023/01/23 11:12:30;;;;;;;20.33;17.52;;;4.00;99.90;;;;;;4995905;28;20089;-76
2023/01/23 11:15:18;;;;;;;18.23;15.13;;;4.10;99.90;;;;;;5001342;28;20026;-76
2023/01/23 11:17:44;;;;;;;21.85;17.45;;;4.10;99.90;;;;;;4988550;28;20026;-76
2023/01/23 11:20:30;;;;;;;22.90;17.33;;;4.10;99.90;;;;;;5004899;28;20048;-77
2023/01/23 11:23:05;;;;;;;18.83;16.98;;;4.20;99.90;;;;;;5002442;28;20117;-77
2023/01/23 11:25:35;;;;;;;22.08;17.75;;;4.10;99.90;;;;;;4987136;28;20034;-77
2023/01/23 11:28:02;;;;;;;;;;;4.20;99.90;;;;;;5006210;28;20022;-77
2023/01/23 11:30:51;;;;;;;19.45;17.27;;;4.20;99.90;;;;;;4986884;28;19906;-77
2023/01/23 11:33:46;;;;;;;25.70;20.02;;;4.20;99.90;;;;;;5003980;28;20018;-78
2023/01/23 11:36:18;;;;;;;18.48;16.67;;;4.20;99.90;;;;;;5001362;28;20113;-78
2023/01/23 11:38:51;;;;;;;19.45;16.52;;;4.20;99.90;;;;;;5007151;28;20050;-77
2023/01/23 11:41:17;;;;;;;20.67;17.73;;;4.20;99.90;;;;;;5026222;28;20033;-77
2023/01/23 11:43:42;;;;;;;17.58;15.85;;;4.30;99.90;;;;;;5012636;28;20098;-77
2023/01/23 11:46:42;;;;;;;24.52;20.90;;;4.30;99.90;;;;;;5010031;28;20030;-78
2023/01/23 11:49:40;;;;;;;25.27;21.00;;;4.20;99.90;;;;;;5005995;28;20077;-77
2023/01/23 11:52:18;;;;;;;20.88;18.50;;;4.20;99.90;;;;;;5006126;28;20027;-77
2023/01/23 11:54:55;;;;;;;23.60;17.65;;;4.10;99.90;;;;;;5005907;28;20494;-77
2023/01/23 11:57:49;;;;;;;23.38;18.40;;;4.00;99.90;;;;;;5006158;28;20094;-76
2023/01/23 12:00:31;;;;;;;19.25;17.10;;;3.90;99.90;;;;;;5006121;28;20104;-76
2023/01/23 12:03:18;;;;;;;18.98;16.98;;;4.00;99.90;;;;;;5006004;28;20034;-76
2023/01/23 12:05:50;;;;;;;21.30;18.30;;;3.90;99.90;;;;;;5005699;28;20034;-76
2023/01/23 12:08:47;;;;;;;21.38;18.23;;;3.90;99.90;;;;;;4988458;28;20031;-76
2023/01/23 12:11:15;;;;;;;24.13;19.58;;;3.80;99.90;;;;;;5005905;28;20034;-76
2023/01/23 12:13:59;;;;;;;22.33;18.67;;;3.80;99.90;;;;;;5008149;28;20443;-77
2023/01/23 12:16:31;;;;;;;20.00;17.33;;;3.80;99.90;;;;;;5008434;28;20397;-76
2023/01/23 12:19:24;;;;;;;24.95;21.08;;;3.80;99.90;;;;;;5008564;28;20034;-76
2023/01/23 12:21:56;;;;;;;22.40;19.45;;;3.70;99.90;;;;;;4990047;28;20090;-77
2023/01/23 12:24:55;;;;;;;26.02;19.42;;;3.80;99.90;;;;;;4990409;28;20062;-77
2023/01/23 12:27:36;;;;;;;21.70;18.10;;;3.70;99.90;;;;;;5014871;28;20041;-77
2023/01/23 12:30:21;;;;;;;24.13;18.90;;;3.70;99.90;;;;;;5008378;28;20470;-77
2023/01/23 12:33:05;;;;;;;23.65;20.13;;;3.70;99.90;;;;;;5008142;28;20030;-78
2023/01/23 12:35:37;;;;;;;22.55;19.80;;;3.70;99.90;;;;;;5013205;28;20082;-77
2023/01/23 12:38:19;;;;;;;21.00;18.63;;;3.70;99.90;;;;;;5009214;28;20098;-77
2023/01/23 12:41:03;;;;;;;22.65;19.95;;;3.70;99.90;;;;;;5009286;28;20038;-77
2023/01/23 12:43:58;;;;;;;31.85;19.15;;;3.60;99.90;;;;;;5009226;28;20130;-78
2023/01/23 12:46:40;;;;;;;28.35;21.73;;;3.60;99.90;;;;;;5009486;28;20040;-77
2023/01/23 12:49:24;;;;;;;24.60;21.77;;;3.70;99.90;;;;;;5008907;28;20018;-77
2023/01/23 12:51:58;;;;;;;22.95;20.45;;;3.70;99.90;;;;;;5009096;28;20029;-77
2023/01/23 12:54:45;;;;;;;22.02;19.77;;;3.70;99.90;;;;;;5009149;28;20038;-77
2023/01/23 12:57:12;;;;;;;28.85;21.77;;;3.80;99.90;;;;;;5007770;28;20110;-77
2023/01/23 13:00:00;;;;;;;24.08;20.15;;;3.70;99.90;;;;;;5008954;28;20035;-77
2023/01/23 13:02:29;;;;;;;21.95;19.23;;;3.70;99.90;;;;;;5007416;28;20033;-77
2023/01/23 13:05:10;;;;;;;22.15;16.85;;;3.70;99.90;;;;;;5008810;28;20032;-77